createdAt,value
2023-06-04T00:00:43.414Z,102330.97
2023-06-04T00:05:44.929Z,102325.53
2023-06-04T00:10:46.494Z,102332.06
2023-06-04T00:15:48.211Z,102331.53
2023-06-04T00:20:49.760Z,102327.19
2023-06-04T00:25:51.513Z,102330.00
2023-06-04T00:30:53.113Z,102330.84
2023-06-04T00:35:54.656Z,102324.75
2023-06-04T00:40:56.211Z,102328.53
2023-06-04T00:45:58.020Z,102330.72
2023-06-04T00:50:59.904Z,102333.91
2023-06-04T00:56:02.039Z,102330.91
2023-06-04T01:01:07.371Z,102337.72
2023-06-04T01:06:24.069Z,102333.69
2023-06-04T01:11:36.586Z,102334.72
2023-06-04T01:16:46.074Z,102340.66
2023-06-04T01:21:52.200Z,102349.03
2023-06-04T01:26:57.091Z,102346.75
2023-06-04T01:31:59.712Z,102348.75
2023-06-04T01:37:01.237Z,102345.59
2023-06-04T01:42:02.829Z,102338.84
2023-06-04T01:47:04.444Z,102350.97
2023-06-04T01:52:06.834Z,102338.28
2023-06-04T01:57:09.065Z,102335.44
2023-06-04T02:02:10.707Z,102338.91
2023-06-04T02:07:18.712Z,102337.63
2023-06-04T02:12:20.335Z,102343.38
2023-06-04T02:17:22.837Z,102335.91
2023-06-04T02:22:26.217Z,102333.44
2023-06-04T02:27:27.729Z,102327.25
2023-06-04T02:32:29.994Z,102332.00
2023-06-04T02:37:31.631Z,102333.19
2023-06-04T02:42:33.201Z,102335.91
2023-06-04T02:47:34.758Z,102334.03
2023-06-04T02:52:38.123Z,102322.66
2023-06-04T02:57:43.695Z,102323.22
2023-06-04T03:02:47.584Z,102330.56
2023-06-04T03:07:49.453Z,102324.53
2023-06-04T03:12:50.956Z,102322.38
2023-06-04T03:17:52.647Z,102326.69
2023-06-04T03:22:54.360Z,102319.63
2023-06-04T03:27:56.044Z,102320.06
2023-06-04T03:32:57.679Z,102320.66
2023-06-04T03:37:59.387Z,102319.94
2023-06-04T03:43:01.424Z,102328.44
2023-06-04T03:48:03.412Z,102327.00
2023-06-04T03:53:06.176Z,102319.50
2023-06-04T03:58:10.613Z,102331.00
2023-06-04T04:03:12.287Z,102338.25
2023-06-04T04:08:17.551Z,102325.84
2023-06-04T04:13:19.240Z,102333.75
2023-06-04T04:18:21.589Z,102337.78
2023-06-04T04:23:24.526Z,102325.94
2023-06-04T04:28:29.740Z,102328.25
2023-06-04T04:33:37.891Z,102326.94
2023-06-04T04:38:39.678Z,102317.25
2023-06-04T04:43:41.400Z,102332.41
2023-06-04T04:48:43.516Z,102329.09
2023-06-04T04:53:45.084Z,102324.06
2023-06-04T04:58:46.666Z,102335.84
2023-06-04T05:03:49.060Z,102337.38
2023-06-04T05:08:50.654Z,102330.13
2023-06-04T05:13:52.234Z,102339.19
2023-06-04T05:18:53.764Z,102343.72
2023-06-04T05:23:56.465Z,102336.91
2023-06-04T05:28:59.515Z,102349.25
2023-06-04T05:34:08.494Z,102343.38
2023-06-04T05:39:12.885Z,102350.28
2023-06-04T05:44:14.403Z,102360.19
2023-06-04T05:49:16.038Z,102358.13
2023-06-04T05:54:17.591Z,102343.59
2023-06-04T05:59:19.235Z,102351.16
2023-06-04T06:04:21.407Z,102357.38
2023-06-04T06:09:23.098Z,102355.75
2023-06-04T06:14:24.671Z,102361.78
2023-06-04T06:19:27.496Z,102359.31
2023-06-04T06:24:29.014Z,102365.38
2023-06-04T06:29:34.465Z,102361.81
2023-06-04T06:34:36.095Z,102367.59
2023-06-04T06:39:37.649Z,102378.94
2023-06-04T06:44:39.183Z,102384.81
2023-06-04T06:49:41.680Z,102372.09
2023-06-04T06:54:43.238Z,102372.16
2023-06-04T06:59:44.823Z,102377.28
2023-06-04T07:04:46.452Z,102376.66
2023-06-04T07:09:47.976Z,102383.63
2023-06-04T07:14:49.571Z,102371.59
2023-06-04T07:19:51.171Z,102380.59
2023-06-04T07:24:53.171Z,102390.75
2023-06-04T07:29:54.734Z,102382.66
2023-06-04T07:34:56.325Z,102385.97
2023-06-04T07:39:57.950Z,102383.38
2023-06-04T07:44:59.611Z,102398.69
2023-06-04T07:50:03.604Z,102395.97
2023-06-04T07:55:06.230Z,102387.00
2023-06-04T08:00:09.266Z,102390.63
2023-06-04T08:05:11.155Z,102383.03
2023-06-04T08:10:12.841Z,102396.13
2023-06-04T08:15:14.490Z,102390.47
2023-06-04T08:20:16.098Z,102388.56
2023-06-04T08:25:18.284Z,102395.28
2023-06-04T08:30:19.898Z,102397.00
2023-06-04T08:35:22.101Z,102390.56
2023-06-04T08:40:23.752Z,102393.63
2023-06-04T08:45:26.605Z,102396.69
2023-06-04T08:50:28.196Z,102396.28
2023-06-04T08:55:29.857Z,102402.69
2023-06-04T09:00:31.440Z,102399.00
2023-06-04T09:05:34.402Z,102408.91
2023-06-04T09:10:39.035Z,102397.69
2023-06-04T09:15:40.756Z,102403.84
2023-06-04T09:20:42.353Z,102406.00
2023-06-04T09:25:46.975Z,102404.66
2023-06-04T09:30:53.477Z,102403.75
2023-06-04T09:35:57.311Z,102409.53
2023-06-04T09:40:58.859Z,102414.13
2023-06-04T09:46:11.462Z,102413.34
2023-06-04T09:51:16.221Z,102418.31
2023-06-04T09:56:17.785Z,102423.66
2023-06-04T10:01:20.235Z,102411.66
2023-06-04T10:06:22.287Z,102416.63
2023-06-04T10:11:32.097Z,102420.59
2023-06-04T10:16:34.802Z,102417.25
2023-06-04T10:21:37.257Z,102415.47
2023-06-04T10:26:40.650Z,102416.19
2023-06-04T10:31:42.590Z,102432.28
2023-06-04T10:36:46.155Z,102434.84
2023-06-04T10:41:58.865Z,102422.75
2023-06-04T10:47:00.736Z,102425.44
2023-06-04T10:52:11.333Z,102421.84
2023-06-04T10:57:16.899Z,102418.69
2023-06-04T11:02:18.476Z,102422.38
2023-06-04T11:07:20.914Z,102409.19
2023-06-04T11:12:22.637Z,102416.91
2023-06-04T11:17:24.583Z,102413.16
2023-06-04T11:22:26.171Z,102427.63
2023-06-04T11:27:36.463Z,102422.00
2023-06-04T11:32:39.029Z,102409.72
2023-06-04T11:37:41.586Z,102409.59
2023-06-04T11:42:45.978Z,102408.25
2023-06-04T11:47:56.682Z,102402.44
2023-06-04T11:52:59.236Z,102404.22
2023-06-04T11:58:01.044Z,102402.97
2023-06-04T12:03:02.731Z,102394.91
2023-06-04T12:08:10.421Z,102399.44
2023-06-04T12:13:12.457Z,102401.31
2023-06-04T12:18:24.856Z,102391.03
2023-06-04T12:23:28.093Z,102394.75
2023-06-04T12:28:29.789Z,102390.13
2023-06-04T12:33:31.311Z,102395.59
2023-06-04T12:38:32.924Z,102385.06
2023-06-04T12:43:35.537Z,102395.97
2023-06-04T12:48:37.120Z,102398.56
2023-06-04T12:53:42.920Z,102384.13
2023-06-04T12:58:44.520Z,102391.28
2023-06-04T13:03:46.338Z,102388.94
2023-06-04T13:08:48.025Z,102392.63
2023-06-04T13:13:49.720Z,102392.44
2023-06-04T13:18:51.273Z,102396.25
2023-06-04T13:23:52.873Z,102397.94
2023-06-04T13:28:54.400Z,102384.09
2023-06-04T13:33:55.992Z,102393.38
2023-06-04T13:38:57.657Z,102394.34
2023-06-04T13:43:59.344Z,102388.50
2023-06-04T13:49:00.897Z,102378.44
2023-06-04T13:54:02.435Z,102385.94
2023-06-04T13:59:03.953Z,102380.75
2023-06-04T14:04:07.787Z,102384.91
2023-06-04T14:09:10.544Z,102382.59
2023-06-04T14:14:12.232Z,102383.56
2023-06-04T14:19:14.190Z,102383.63
2023-06-04T14:24:15.868Z,102382.41
2023-06-04T14:29:17.512Z,102381.13
2023-06-04T14:34:19.057Z,102370.19
2023-06-04T14:39:22.983Z,102370.53
2023-06-04T14:44:24.647Z,102364.75
2023-06-04T14:49:26.242Z,102357.50
2023-06-04T14:54:27.842Z,102363.75
2023-06-04T14:59:29.679Z,102354.16
2023-06-04T15:04:31.278Z,102368.66
2023-06-04T15:09:32.840Z,102362.13
2023-06-04T15:14:34.410Z,102354.56
2023-06-04T15:19:36.009Z,102358.88
2023-06-04T15:24:37.505Z,102360.41
2023-06-04T15:29:39.047Z,102367.38
2023-06-04T15:34:40.623Z,102354.09
2023-06-04T15:39:42.235Z,102352.53
2023-06-04T15:44:43.798Z,102350.56
2023-06-04T15:49:45.640Z,102363.69
2023-06-04T15:54:47.555Z,102359.72
2023-06-04T15:59:49.226Z,102349.56
2023-06-04T16:04:50.849Z,102355.59
2023-06-04T16:09:52.530Z,102356.13
2023-06-04T16:14:54.129Z,102351.47
2023-06-04T16:19:55.649Z,102339.25
2023-06-04T16:24:57.206Z,102339.25
2023-06-04T16:29:58.819Z,102330.50
2023-06-04T16:35:03.043Z,102329.81
2023-06-04T16:40:05.834Z,102323.44
2023-06-04T16:45:08.042Z,102332.03
2023-06-04T16:50:10.723Z,102322.56
2023-06-04T16:55:15.040Z,102322.72
2023-06-04T17:00:26.331Z,102327.22
2023-06-04T17:05:29.810Z,102332.53
2023-06-04T17:10:33.402Z,102336.31
2023-06-04T17:15:35.018Z,102328.91
2023-06-04T17:20:36.882Z,102327.53
2023-06-04T17:25:38.422Z,102338.03
2023-06-04T17:30:40.000Z,102326.31
2023-06-04T17:35:41.794Z,102332.31
2023-06-04T17:40:43.450Z,102331.06
2023-06-04T17:45:45.198Z,102333.97
2023-06-04T17:50:46.779Z,102346.69
2023-06-04T17:55:48.403Z,102334.94
2023-06-04T18:00:50.091Z,102348.22
2023-06-04T18:05:52.002Z,102348.53
2023-06-04T18:10:54.111Z,102354.16
2023-06-04T18:15:56.354Z,102341.59
2023-06-04T18:20:57.996Z,102352.41
2023-06-04T18:26:00.398Z,102348.72
2023-06-04T18:31:02.014Z,102348.00
2023-06-04T18:36:03.624Z,102353.44
2023-06-04T18:41:05.287Z,102348.34
2023-06-04T18:46:07.062Z,102339.34
2023-06-04T18:51:08.821Z,102347.53
2023-06-04T18:56:10.458Z,102342.50
2023-06-04T19:01:12.079Z,102353.66
2023-06-04T19:06:13.717Z,102350.00
2023-06-04T19:11:15.477Z,102346.44
2023-06-04T19:16:17.041Z,102359.66
2023-06-04T19:21:18.665Z,102353.44
2023-06-04T19:26:21.756Z,102355.13
2023-06-04T19:31:28.752Z,102361.56
2023-06-04T19:36:30.695Z,102366.91
2023-06-04T19:41:32.340Z,102360.91
2023-06-04T19:46:34.027Z,102364.69
2023-06-04T19:51:36.147Z,102377.75
2023-06-04T19:56:38.778Z,102377.09
2023-06-04T20:01:40.401Z,102370.81
2023-06-04T20:06:43.231Z,102381.09
2023-06-04T20:11:44.847Z,102391.78
2023-06-04T20:16:46.655Z,102394.81
2023-06-04T20:21:48.296Z,102400.66
2023-06-04T20:26:49.921Z,102397.06
2023-06-04T20:31:51.516Z,102402.72
2023-06-04T20:36:56.399Z,102401.44
2023-06-04T20:41:58.714Z,102407.53
2023-06-04T20:47:00.355Z,102401.22
2023-06-04T20:52:01.968Z,102405.09
2023-06-04T20:57:03.619Z,102418.38
2023-06-04T21:02:05.644Z,102417.66
2023-06-04T21:07:07.699Z,102427.19
2023-06-04T21:12:09.261Z,102428.63
2023-06-04T21:17:11.003Z,102441.59
2023-06-04T21:22:12.592Z,102439.88
2023-06-04T21:27:14.185Z,102435.69
2023-06-04T21:32:15.746Z,102428.22
2023-06-04T21:37:17.297Z,102438.84
2023-06-04T21:42:19.094Z,102436.25
2023-06-04T21:47:20.709Z,102438.56
2023-06-04T21:52:25.847Z,102429.47
2023-06-04T21:57:27.723Z,102446.19
2023-06-04T22:02:29.308Z,102444.16
2023-06-04T22:07:30.945Z,102451.41
2023-06-04T22:12:32.578Z,102441.31
2023-06-04T22:17:34.143Z,102444.31
2023-06-04T22:22:36.193Z,102440.72
2023-06-04T22:27:37.818Z,102448.06
2023-06-04T22:32:39.504Z,102450.78
2023-06-04T22:37:41.061Z,102450.78
2023-06-04T22:42:42.686Z,102449.16
2023-06-04T22:47:44.308Z,102453.66
2023-06-04T22:52:45.897Z,102443.22
2023-06-04T22:57:47.574Z,102445.25
2023-06-04T23:02:49.274Z,102445.06
2023-06-04T23:07:51.128Z,102453.03
2023-06-04T23:12:52.720Z,102444.53
2023-06-04T23:17:54.372Z,102453.16
2023-06-04T23:22:56.193Z,102453.16
2023-06-04T23:27:57.778Z,102447.69
2023-06-04T23:33:00.009Z,102454.16
2023-06-04T23:38:01.903Z,102460.47
2023-06-04T23:43:03.448Z,102460.47
2023-06-04T23:48:05.094Z,102465.09
2023-06-04T23:53:06.678Z,102462.66
2023-06-04T23:58:08.234Z,102464.66
